Time;durP1;ratioP1;P1;durP2;ratioP2;P2;SDS_P1;SDS_P2;PMS_P1;PMS_P2;Temp;Humidity;BMP_temperature;BMP_pressure;BME280_temperature;BME280_humidity;BME280_pressure;Samples;Min_cycle;Max_cycle;Signal;HPM_P1;HPM_P2
2022/04/18 00:01:57;;;;;;;6.63;5.57;;;;;;;-148.33;100.00;56587.81;5028773;28;20108;-60
2022/04/18 00:04:22;;;;;;;5.68;5.18;;;;;;;-148.33;100.00;56587.81;5026833;28;20068;-59
2022/04/18 00:06:48;;;;;;;6.70;5.40;;;;;;;-148.33;100.00;56587.81;5028684;28;20053;-59
2022/04/18 00:09:14;;;;;;;5.88;4.85;;;;;;;-148.33;100.00;56587.81;5027644;28;20032;-58
2022/04/18 00:11:39;;;;;;;6.05;4.53;;;;;;;-148.33;100.00;56587.81;5029026;28;20030;-60
2022/04/18 00:14:05;;;;;;;5.15;4.65;;;;;;;-148.33;100.00;56587.81;5028530;28;20025;-60
2022/04/18 00:16:30;;;;;;;6.25;5.25;;;;;;;-148.33;100.00;56587.81;5028130;28;20025;-60
2022/04/18 00:18:56;;;;;;;6.97;5.18;;;;;;;-148.33;100.00;56587.81;5028178;28;20026;-60
2022/04/18 00:21:21;;;;;;;5.20;4.60;;;;;;;-148.33;100.00;56587.81;5028899;28;20025;-59
2022/04/18 00:23:47;;;;;;;6.50;5.38;;;;;;;-148.33;100.00;56587.81;5028404;28;20041;-58
2022/04/18 00:26:13;;;;;;;5.65;4.68;;;;;;;-148.33;100.00;56587.81;5028606;28;20025;-58
2022/04/18 00:28:38;;;;;;;5.40;4.55;;;;;;;-148.33;100.00;56587.81;5027054;28;20527;-59
2022/04/18 00:31:04;;;;;;;4.95;4.45;;;;;;;-148.33;100.00;56587.81;5028646;28;20354;-60
2022/04/18 00:33:29;;;;;;;5.85;4.40;;;;;;;-148.33;100.00;56587.81;5028166;28;20470;-60
2022/04/18 00:35:55;;;;;;;6.95;3.92;;;;;;;-148.33;100.00;56587.81;5028240;28;20033;-60
2022/04/18 00:38:21;;;;;;;5.85;4.25;;;;;;;-148.33;100.00;56587.81;5028354;28;20018;-60
2022/04/18 00:40:47;;;;;;;6.78;4.30;;;;;;;-148.33;100.00;56587.81;5028209;28;20389;-61
2022/04/18 00:43:12;;;;;;;6.82;4.65;;;;;;;-148.33;100.00;56587.81;5028211;28;20084;-61
2022/04/18 00:45:37;;;;;;;5.85;4.68;;;;;;;-148.33;100.00;56587.81;5027844;28;20025;-60
2022/04/18 00:48:03;;;;;;;5.55;4.70;;;;;;;-148.33;100.00;56587.81;5028072;28;20119;-59
2022/04/18 00:50:33;;;;;;;4.10;3.75;;;;;;;-148.33;100.00;56587.81;5027885;28;20044;-59
2022/04/18 00:52:59;;;;;;;7.47;4.17;;;;;;;-148.33;100.00;56587.81;5028067;28;20409;-61
2022/04/18 00:55:27;;;;;;;4.18;3.78;;;;;;;-148.33;100.00;56587.81;5028144;28;20029;-61
2022/04/18 00:57:54;;;;;;;7.75;4.32;;;;;;;-148.33;100.00;56587.81;5027990;28;20370;-60
2022/04/18 01:00:20;;;;;;;4.60;3.53;;;;;;;-148.33;100.00;56587.81;5028004;28;20037;-61
2022/04/18 01:02:45;;;;;;;4.38;3.72;;;;;;;-148.33;100.00;56587.81;5028104;28;20044;-60
2022/04/18 01:05:11;;;;;;;5.80;3.38;;;;;;;-148.33;100.00;56587.81;5027804;28;20033;-59
2022/04/18 01:07:36;;;;;;;4.07;3.67;;;;;;;-148.33;100.00;56587.81;5030248;28;20089;-61
2022/04/18 01:10:07;;;;;;;5.85;3.65;;;;;;;-148.33;100.00;56587.81;5032102;28;20031;-60
2022/04/18 01:12:32;;;;;;;4.50;4.00;;;;;;;-148.33;100.00;56587.81;5031854;28;20051;-61
2022/04/18 01:14:58;;;;;;;3.72;3.33;;;;;;;-148.33;100.00;56587.81;5031337;28;20026;-60
2022/04/18 01:17:24;;;;;;;6.72;3.75;;;;;;;-148.33;100.00;56587.81;5031443;28;20022;-60
2022/04/18 01:19:50;;;;;;;4.35;3.40;;;;;;;-148.33;100.00;56587.81;5031739;28;20073;-59
2022/04/18 01:22:15;;;;;;;3.97;3.28;;;;;;;-148.33;100.00;56587.81;5032018;28;20025;-60
2022/04/18 01:30:12;;;;;;;5.85;3.35;;;;;;;-148.33;100.00;56587.81;5031593;28;20035;-61
2022/04/18 01:32:37;;;;;;;5.03;3.58;;;;;;;-148.33;100.00;56587.81;5031333;28;20113;-61
2022/04/18 01:35:04;;;;;;;4.78;3.28;;;;;;;-148.33;100.00;56587.81;5030151;28;20083;-60
2022/04/18 01:37:29;;;;;;;3.88;3.40;;;;;;;-148.33;100.00;56587.81;5031400;28;20064;-60
2022/04/18 01:39:55;;;;;;;4.80;3.80;;;;;;;-148.33;100.00;56587.81;5030834;28;20021;-60
2022/04/18 01:42:20;;;;;;;3.85;3.47;;;;;;;-148.33;100.00;56587.81;5031185;28;20470;-61
2022/04/18 01:44:46;;;;;;;5.73;3.53;;;;;;;-148.33;100.00;56587.81;5031151;28;20021;-60
2022/04/18 01:47:11;;;;;;;5.85;3.35;;;;;;;-148.33;100.00;56587.81;5031309;28;20032;-60
2022/04/18 01:49:36;;;;;;;3.92;3.53;;;;;;;-148.33;100.00;56587.81;5030871;28;20022;-60
2022/04/18 01:52:02;;;;;;;4.43;3.85;;;;;;;-148.33;100.00;56587.81;5030912;28;20476;-59
2022/04/18 01:54:27;;;;;;;3.53;3.15;;;;;;;-148.33;100.00;56587.81;5029790;28;20033;-60
2022/04/18 01:56:52;;;;;;;4.67;3.70;;;;;;;-148.33;100.00;56587.81;5031371;28;20052;-60
2022/04/18 01:59:18;;;;;;;4.10;3.70;;;;;;;-148.33;100.00;56587.81;5030560;28;20096;-60
2022/04/18 02:01:43;;;;;;;3.77;3.30;;;;;;;-148.33;100.00;56587.81;5031032;28;20025;-61
2022/04/18 02:04:08;;;;;;;4.57;4.17;;;;;;;-148.33;100.00;56587.81;5030981;28;20189;-60
2022/04/18 02:06:34;;;;;;;4.47;3.77;;;;;;;-148.33;100.00;56587.81;5030980;28;20469;-60
2022/04/18 02:08:59;;;;;;;4.13;3.67;;;;;;;-148.33;100.00;56587.81;5030975;28;20021;-60
2022/04/18 02:11:25;;;;;;;4.77;4.20;;;;;;;-148.33;100.00;56587.81;5030133;28;20034;-60
2022/04/18 02:13:52;;;;;;;4.77;3.57;;;;;;;-148.33;100.00;56587.81;5030893;28;20101;-60
2022/04/18 02:16:17;;;;;;;4.63;3.83;;;;;;;-148.33;100.00;56587.81;5030699;28;20385;-59
2022/04/18 02:18:42;;;;;;;4.70;3.87;;;;;;;-148.33;100.00;56587.81;5029485;28;20018;-60
2022/04/18 02:21:11;;;;;;;5.57;4.60;;;;;;;-148.33;100.00;56587.81;5029941;28;20025;-60
2022/04/18 02:23:37;;;;;;;4.37;3.97;;;;;;;-148.33;100.00;56587.81;5030823;28;20032;-59
2022/04/18 02:26:02;;;;;;;4.17;3.77;;;;;;;-148.33;100.00;56587.81;5030566;28;20059;-58
2022/04/18 02:28:28;;;;;;;5.20;3.90;;;;;;;-148.33;100.00;56587.81;5030382;28;20021;-60
2022/04/18 02:30:53;;;;;;;4.57;4.18;;;;;;;-148.33;100.00;56587.81;5030175;28;20029;-60
2022/04/18 02:33:18;;;;;;;4.90;4.00;;;;;;;-148.33;100.00;56587.81;5030471;28;20516;-61
2022/04/18 02:35:43;;;;;;;5.57;4.03;;;;;;;-148.33;100.00;56587.81;5030657;28;20037;-59
2022/04/18 02:38:09;;;;;;;6.07;4.17;;;;;;;-148.33;100.00;56587.81;5030432;28;20473;-60
2022/04/18 02:40:34;;;;;;;6.37;4.40;;;;;;;-148.33;100.00;56587.81;5030545;28;20068;-60
2022/04/18 02:43:00;;;;;;;5.20;4.43;;;;;;;-148.33;100.00;56587.81;5029740;28;20530;-60
2022/04/18 02:45:27;;;;;;;4.30;3.90;;;;;;;-148.33;100.00;56587.81;5029902;28;20029;-59
2022/04/18 02:47:52;;;;;;;5.30;3.90;;;;;;;-148.33;100.00;56587.81;5030311;28;20024;-60
2022/04/18 02:50:17;;;;;;;4.13;3.70;;;;;;;-148.33;100.00;56587.81;5030293;28;20029;-60
2022/04/18 02:52:43;;;;;;;5.73;4.20;;;;;;;-148.33;100.00;56587.81;5029840;28;20543;-60
2022/04/18 02:55:11;;;;;;;5.00;3.67;;;;;;;-148.33;100.00;56587.81;5030188;28;20022;-59
2022/04/18 02:57:36;;;;;;;4.13;3.77;;;;;;;-148.33;100.00;56587.81;5030113;28;20445;-60
2022/04/18 03:00:03;;;;;;;5.43;4.00;;;;;;;-148.33;100.00;56587.81;5029879;28;20086;-61
2022/04/18 03:02:28;;;;;;;4.13;3.73;;;;;;;-148.33;100.00;56587.81;5029880;28;20025;-60
2022/04/18 03:04:54;;;;;;;4.40;4.00;;;;;;;-148.33;100.00;56587.81;5029166;28;20506;-60
2022/04/18 03:07:19;;;;;;;4.70;3.63;;;;;;;-148.33;100.00;56587.81;5029896;28;20299;-60
2022/04/18 03:09:46;;;;;;;5.17;4.10;;;;;;;-148.33;100.00;56587.81;5029671;28;20028;-60
2022/04/18 03:12:11;;;;;;;5.30;3.47;;;;;;;-148.33;100.00;56587.81;5029064;28;20397;-60
2022/04/18 03:14:36;;;;;;;5.33;4.07;;;;;;;-148.33;100.00;56587.81;5028099;28;20029;-60
2022/04/18 03:17:03;;;;;;;6.20;3.93;;;;;;;-148.33;100.00;56587.81;5030223;28;20116;-60
2022/04/18 03:19:28;;;;;;;6.03;4.13;;;;;;;-148.33;100.00;56587.81;5029986;28;20032;-59
2022/04/18 03:21:54;;;;;;;4.13;3.60;;;;;;;-148.33;100.00;56587.81;5029732;28;20029;-60
2022/04/18 03:24:19;;;;;;;5.10;4.33;;;;;;;-148.33;100.00;56587.81;5029453;28;20322;-60
2022/04/18 03:26:45;;;;;;;5.63;3.97;;;;;;;-148.33;100.00;56587.81;5029912;28;20025;-60
2022/04/18 03:29:10;;;;;;;4.63;3.77;;;;;;;-148.33;100.00;56587.81;5030147;28;20026;-61
2022/04/18 03:31:36;;;;;;;4.30;3.90;;;;;;;-148.33;100.00;56587.81;5029931;28;20036;-60
2022/04/18 03:34:01;;;;;;;4.30;3.90;;;;;;;-148.33;100.00;56587.81;5030116;28;20032;-61
2022/04/18 03:41:54;;;;;;;4.60;3.97;;;;;;;-148.33;100.00;56587.81;5030203;28;20544;-61
2022/04/18 03:44:19;;;;;;;4.47;4.03;;;;;;;-148.33;100.00;56587.81;5030041;28;20021;-60
2022/04/18 03:46:45;;;;;;;4.80;3.50;;;;;;;-148.33;100.00;56587.81;5029476;28;20041;-60
2022/04/18 03:49:10;;;;;;;4.97;3.70;;;;;;;-148.33;100.00;56587.81;5028939;28;20034;-61
2022/04/18 03:51:36;;;;;;;4.57;4.13;;;;;;;-148.33;100.00;56587.81;5029426;28;20086;-61
2022/04/18 03:54:01;;;;;;;4.50;3.97;;;;;;;-148.33;100.00;56587.81;5029614;28;20036;-59
2022/04/18 03:56:26;;;;;;;5.27;4.47;;;;;;;-148.33;100.00;56587.81;5029180;28;20080;-59
2022/04/18 03:58:51;;;;;;;4.30;3.90;;;;;;;-148.33;100.00;56587.81;5029367;28;20033;-61
2022/04/18 04:01:17;;;;;;;5.90;3.67;;;;;;;-148.33;100.00;56587.81;5029571;28;20493;-61
2022/04/18 04:03:42;;;;;;;4.00;3.53;;;;;;;-148.33;100.00;56587.81;5029423;28;20029;-60
2022/04/18 04:06:08;;;;;;;4.67;3.70;;;;;;;-148.33;100.00;56587.81;5029248;28;20026;-59
2022/04/18 04:08:33;;;;;;;4.87;4.37;;;;;;;-148.33;100.00;56587.81;5029419;28;20485;-59
2022/04/18 04:10:58;;;;;;;4.10;3.70;;;;;;;-148.33;100.00;56587.81;5029575;28;20105;-60
2022/04/18 04:13:23;;;;;;;5.43;4.13;;;;;;;-148.33;100.00;56587.81;5029437;28;20030;-58
2022/04/18 04:15:49;;;;;;;4.40;4.00;;;;;;;-148.33;100.00;56587.81;5029614;28;20033;-59
2022/04/18 04:18:14;;;;;;;4.67;4.27;;;;;;;-148.33;100.00;56587.81;5029470;28;20022;-58
2022/04/18 04:20:39;;;;;;;3.80;3.50;;;;;;;-148.33;100.00;56587.81;5029357;28;20038;-60
2022/04/18 04:23:06;;;;;;;6.13;3.97;;;;;;;-148.33;100.00;56587.81;5028511;28;20040;-60
2022/04/18 04:25:31;;;;;;;4.20;3.80;;;;;;;-148.33;100.00;56587.81;5028180;28;20156;-58
2022/04/18 04:27:56;;;;;;;4.53;3.80;;;;;;;-148.33;100.00;56587.81;5027073;28;20530;-59
2022/04/18 04:30:21;;;;;;;6.47;4.23;;;;;;;-148.33;100.00;56587.81;5027217;28;20026;-58
2022/04/18 04:32:50;;;;;;;4.30;3.87;;;;;;;-148.33;100.00;56587.81;5026973;28;20045;-59
2022/04/18 04:35:16;;;;;;;3.80;3.50;;;;;;;-148.33;100.00;56587.81;5028234;28;20041;-58
2022/04/18 04:37:41;;;;;;;4.57;4.13;;;;;;;-148.33;100.00;56587.81;5027196;28;20036;-60
2022/04/18 04:40:08;;;;;;;4.63;3.93;;;;;;;-148.33;100.00;56587.81;5027170;28;20581;-59
2022/04/18 04:42:33;;;;;;;5.03;4.53;;;;;;;-148.33;100.00;56587.81;5028517;28;20042;-60
2022/04/18 04:44:58;;;;;;;4.40;4.00;;;;;;;-148.33;100.00;56587.81;5027348;28;20397;-58
2022/04/18 04:47:24;;;;;;;5.33;4.07;;;;;;;-148.33;100.00;56587.81;5028941;28;20397;-57
2022/04/18 04:49:49;;;;;;;4.30;3.63;;;;;;;-148.33;100.00;56587.81;5029080;28;20037;-60
2022/04/18 04:52:14;;;;;;;5.40;4.00;;;;;;;-148.33;100.00;56587.81;5028143;28;20029;-59
2022/04/18 04:54:40;;;;;;;5.57;4.10;;;;;;;-148.33;100.00;56587.81;5029142;28;20072;-60
2022/04/18 04:57:05;;;;;;;5.17;4.10;;;;;;;-148.33;100.00;56587.81;5028943;28;20455;-57
2022/04/18 04:59:30;;;;;;;5.40;4.27;;;;;;;-148.33;100.00;56587.81;5028321;28;20022;-59
2022/04/18 05:01:55;;;;;;;4.37;3.97;;;;;;;-148.33;100.00;56587.81;5028473;28;20030;-58
2022/04/18 05:04:24;;;;;;;5.27;4.20;;;;;;;-148.33;100.00;56587.81;5028902;28;20108;-59
2022/04/18 05:06:49;;;;;;;4.83;4.33;;;;;;;-148.33;100.00;56587.81;5028269;28;20056;-59
2022/04/18 05:09:14;;;;;;;4.30;3.90;;;;;;;-148.33;100.00;56587.81;5028971;28;20469;-60
2022/04/18 05:11:40;;;;;;;4.43;3.83;;;;;;;-148.33;100.00;56587.81;5028662;28;20087;-59
2022/04/18 05:14:05;;;;;;;5.93;4.10;;;;;;;-148.33;100.00;56587.81;5028827;28;20524;-59
2022/04/18 05:16:31;;;;;;;5.03;3.77;;;;;;;-148.33;100.00;56587.81;5028478;28;20025;-59
2022/04/18 05:18:56;;;;;;;5.30;3.57;;;;;;;-148.33;100.00;56587.81;5027320;28;20762;-57
2022/04/18 05:21:21;;;;;;;7.67;4.30;;;;;;;-148.33;100.00;56587.81;5028510;28;20029;-58
2022/04/18 05:23:48;;;;;;;5.27;4.70;;;;;;;-148.33;100.00;56587.81;5028378;28;20378;-58
2022/04/18 05:26:13;;;;;;;4.13;3.80;;;;;;;-148.33;100.00;56587.81;5028947;28;20030;-58
2022/04/18 05:28:38;;;;;;;6.47;4.60;;;;;;;-148.33;100.00;56587.81;5028555;28;20026;-58
2022/04/18 05:31:04;;;;;;;6.13;4.30;;;;;;;-148.33;100.00;56587.81;5028327;28;20451;-60
2022/04/18 05:33:29;;;;;;;4.43;4.03;;;;;;;-148.33;100.00;56587.81;5028417;28;20044;-60
2022/04/18 05:35:54;;;;;;;4.73;4.33;;;;;;;-148.33;100.00;56587.81;5028304;28;20041;-57
2022/04/18 05:38:20;;;;;;;5.33;4.83;;;;;;;-148.33;100.00;56587.81;5028361;28;20021;-58
2022/04/18 05:40:45;;;;;;;5.53;4.07;;;;;;;-148.33;100.00;56587.81;5027963;28;20444;-58
2022/04/18 05:43:11;;;;;;;4.40;4.00;;;;;;;-148.33;100.00;56587.81;5028121;28;20025;-58
2022/04/18 05:45:37;;;;;;;4.53;3.50;;;;;;;-148.33;100.00;56587.81;5028521;28;20021;-59
2022/04/18 05:48:03;;;;;;;4.47;4.03;;;;;;;-148.33;100.00;56587.81;5028602;28;20506;-58
2022/04/18 05:50:28;;;;;;;4.40;3.40;;;;;;;-148.33;100.00;56587.81;5028385;28;20025;-59
2022/04/18 05:52:54;;;;;;;5.80;3.50;;;;;;;-148.33;100.00;56587.81;5028455;28;20372;-59
2022/04/18 05:55:20;;;;;;;5.73;3.40;;;;;;;-148.33;100.00;56587.81;5031049;28;20075;-58
2022/04/18 05:57:45;;;;;;;4.40;2.90;;;;;;;-148.33;100.00;56587.81;5031824;28;20035;-60
2022/04/18 06:00:11;;;;;;;4.47;3.40;;;;;;;-148.33;100.00;56587.81;5031670;28;20428;-60
2022/04/18 06:02:36;;;;;;;3.53;3.20;;;;;;;-148.33;100.00;56587.81;5031313;28;20025;-59
2022/04/18 06:05:02;;;;;;;4.27;3.50;;;;;;;-148.33;100.00;56587.81;5031385;28;20037;-59
2022/04/18 06:07:27;;;;;;;3.97;3.15;;;;;;;-148.33;100.00;56587.81;5031893;28;20041;-59
2022/04/18 06:09:52;;;;;;;4.45;3.03;;;;;;;-148.33;100.00;56587.81;5032149;28;20029;-60
2022/04/18 06:12:21;;;;;;;4.93;2.75;;;;;;;-148.33;100.00;56587.81;5031663;28;20041;-60
2022/04/18 06:14:46;;;;;;;3.90;3.00;;;;;;;-148.33;100.00;56587.81;5031300;28;20025;-60
2022/04/18 06:17:11;;;;;;;5.35;3.10;;;;;;;-148.33;100.00;56587.81;5031061;28;20423;-59
2022/04/18 06:19:37;;;;;;;4.53;2.97;;;;;;;-148.33;100.00;56587.81;5031334;28;20539;-58
2022/04/18 06:22:03;;;;;;;4.03;3.35;;;;;;;-148.33;100.00;56587.81;5031340;28;20036;-59
2022/04/18 06:24:28;;;;;;;3.20;2.80;;;;;;;-148.33;100.00;56587.81;5031470;28;20083;-59
2022/04/18 06:26:54;;;;;;;4.03;3.15;;;;;;;-148.33;100.00;56587.81;5031040;28;20030;-60
2022/04/18 06:29:19;;;;;;;4.00;3.25;;;;;;;-148.33;100.00;56587.81;5031132;28;20022;-59
2022/04/18 06:31:46;;;;;;;5.20;3.13;;;;;;;-148.33;100.00;56587.81;5031058;28;20041;-58
2022/04/18 06:34:11;;;;;;;3.47;2.97;;;;;;;-148.33;100.00;56587.81;5030695;28;20033;-59
2022/04/18 06:36:36;;;;;;;5.72;3.85;;;;;;;-148.33;100.00;56587.81;5031344;28;20040;-60
2022/04/18 06:39:02;;;;;;;4.28;3.33;;;;;;;-148.33;100.00;56587.81;5031162;28;20218;-60
2022/04/18 06:41:28;;;;;;;5.05;3.15;;;;;;;-148.33;100.00;56587.81;5040776;28;20048;-58
2022/04/18 06:43:53;;;;;;;5.55;3.20;;;;;;;-148.33;100.00;56587.81;5040404;28;20029;-60
2022/04/18 06:46:18;;;;;;;3.88;3.13;;;;;;;-148.33;100.00;56587.81;5049273;28;20302;-58
2022/04/18 06:48:44;;;;;;;3.20;2.78;;;;;;;-148.33;100.00;56587.81;5049997;28;20029;-60
2022/04/18 06:51:10;;;;;;;3.53;2.90;;;;;;;-148.33;100.00;56587.81;5050708;28;20036;-59
2022/04/18 06:53:35;;;;;;;3.70;3.13;;;;;;;-148.33;100.00;56587.81;5049148;28;20222;-59
2022/04/18 06:58:44;;;;;;;4.47;3.03;;;;;;;-148.33;100.00;56587.81;5049966;28;20031;-61
2022/04/18 07:01:10;;;;;;;4.88;3.00;;;;;;;-148.33;100.00;56587.81;5050456;28;20108;-59
2022/04/18 07:03:35;;;;;;;3.95;3.00;;;;;;;-148.33;100.00;56587.81;5034503;28;20033;-61
2022/04/18 07:06:01;;;;;;;3.90;3.22;;;;;;;-148.33;100.00;56587.81;5030238;28;20095;-61
2022/04/18 07:08:26;;;;;;;3.20;2.90;;;;;;;-148.33;100.00;56587.81;5030170;28;20109;-61
2022/04/18 07:10:51;;;;;;;3.55;2.80;;;;;;;-148.33;100.00;56587.81;5029802;28;20428;-59
2022/04/18 07:13:17;;;;;;;3.50;2.60;;;;;;;-148.33;100.00;56587.81;5029814;28;20033;-59
2022/04/18 07:15:42;;;;;;;3.95;2.53;;;;;;;-148.33;100.00;56587.81;5028953;28;20385;-61
2022/04/18 07:18:08;;;;;;;3.35;2.45;;;;;;;-148.33;100.00;56587.81;5030367;28;20397;-61
2022/04/18 07:20:33;;;;;;;4.45;2.70;;;;;;;-148.33;100.00;56587.81;5030231;28;20037;-60
2022/04/18 07:22:59;;;;;;;2.80;2.60;;;;;;;-148.33;100.00;56587.81;5030089;28;20032;-60
2022/04/18 07:25:24;;;;;;;3.90;2.83;;;;;;;-148.33;100.00;56587.81;5029550;28;20052;-61
2022/04/18 07:27:50;;;;;;;4.43;3.05;;;;;;;-148.33;100.00;56587.81;5029476;28;20037;-60
2022/04/18 07:30:15;;;;;;;3.95;2.78;;;;;;;-148.33;100.00;56587.81;5029341;28;20029;-61
2022/04/18 07:32:41;;;;;;;3.05;2.40;;;;;;;-148.33;100.00;56587.81;5029299;28;20052;-59
2022/04/18 07:35:08;;;;;;;4.10;2.53;;;;;;;-148.33;100.00;56587.81;5029276;28;20520;-60
2022/04/18 07:37:34;;;;;;;2.33;1.88;;;;;;;-148.33;100.00;56587.81;5028722;28;20049;-59
2022/04/18 07:39:59;;;;;;;4.57;3.00;;;;;;;-148.33;100.00;56587.81;5028959;28;20097;-60
2022/04/18 07:42:25;;;;;;;3.05;2.60;;;;;;;-148.33;100.00;56587.81;5029292;28;20440;-61
2022/04/18 07:44:50;;;;;;;3.38;2.42;;;;;;;-148.33;100.00;56587.81;5029476;28;20041;-61
2022/04/18 07:47:15;;;;;;;3.33;2.30;;;;;;;-148.33;100.00;56587.81;5028755;28;20029;-62
2022/04/18 07:49:40;;;;;;;2.60;2.22;;;;;;;-148.33;100.00;56587.81;5028971;28;20025;-61
2022/04/18 07:52:08;;;;;;;3.38;2.40;;;;;;;-148.33;100.00;56587.81;5028836;28;20031;-61
2022/04/18 07:54:34;;;;;;;2.42;2.22;;;;;;;-148.33;100.00;56587.81;5028636;28;20028;-60
2022/04/18 07:57:00;;;;;;;3.05;2.45;;;;;;;-148.33;100.00;56587.81;5028215;28;20029;-61
2022/04/18 07:59:25;;;;;;;4.75;2.17;;;;;;;-148.33;100.00;56587.81;5028675;28;20087;-60
2022/04/18 08:01:50;;;;;;;4.78;2.28;;;;;;;-148.33;100.00;56587.81;5028877;28;20037;-61
2022/04/18 08:04:16;;;;;;;2.97;2.50;;;;;;;-148.33;100.00;56587.81;5028312;28;20028;-61
2022/04/18 08:06:41;;;;;;;2.10;1.90;;;;;;;-148.33;100.00;56587.81;5027966;28;20440;-62
2022/04/18 08:09:06;;;;;;;3.92;2.22;;;;;;;-148.33;100.00;56587.81;5047141;28;20040;-61
2022/04/18 08:11:32;;;;;;;2.85;1.85;;;;;;;-148.33;100.00;56587.81;5048397;28;20035;-61
2022/04/18 08:13:57;;;;;;;3.80;2.00;;;;;;;-148.33;100.00;56587.81;5037507;28;20318;-62
2022/04/18 08:16:23;;;;;;;3.13;2.20;;;;;;;-148.33;100.00;56587.81;5027929;28;20041;-60
2022/04/18 08:18:48;;;;;;;2.20;2.10;;;;;;;-148.33;100.00;56587.81;5027490;28;20025;-61
2022/04/18 08:21:17;;;;;;;3.55;2.30;;;;;;;-148.33;100.00;56587.81;5027602;28;20040;-59
2022/04/18 08:23:43;;;;;;;2.92;2.33;;;;;;;-148.33;100.00;56587.81;5027989;28;20590;-60
2022/04/18 08:26:09;;;;;;;3.35;2.28;;;;;;;-148.33;100.00;56587.81;5027233;28;20044;-61
2022/04/18 08:28:34;;;;;;;3.03;2.33;;;;;;;-148.33;100.00;56587.81;5027257;28;20079;-59
2022/04/18 08:31:01;;;;;;;2.35;2.10;;;;;;;-148.33;100.00;56587.81;5027644;28;20017;-61
2022/04/18 08:33:29;;;;;;;5.93;2.08;;;;;;;-148.33;100.00;56587.81;5027959;28;20053;-62
2022/04/18 08:35:54;;;;;;;2.50;2.30;;;;;;;-148.33;100.00;56587.81;5026363;28;20496;-61
2022/04/18 08:38:19;;;;;;;3.13;2.10;;;;;;;-148.33;100.00;56587.81;5028093;28;20025;-60
2022/04/18 08:40:48;;;;;;;4.53;2.30;;;;;;;-148.33;100.00;56587.81;5028094;28;20056;-61
2022/04/18 08:43:13;;;;;;;4.15;2.03;;;;;;;-148.33;100.00;56587.81;5028265;28;20029;-61
2022/04/18 08:45:39;;;;;;;2.22;1.63;;;;;;;-148.33;100.00;56587.81;5028348;28;20044;-61
2022/04/18 08:53:35;;;;;;;2.63;1.80;;;;;;;-148.33;100.00;56587.81;5027984;28;20668;-62
2022/04/18 08:56:00;;;;;;;2.30;2.10;;;;;;;-148.33;100.00;56587.81;5028216;28;20029;-62
2022/04/18 08:58:26;;;;;;;3.13;2.08;;;;;;;-148.33;100.00;56587.81;5026480;28;20029;-62
2022/04/18 09:00:53;;;;;;;2.17;1.90;;;;;;;-148.33;100.00;56587.81;5028028;28;20457;-62
2022/04/18 09:03:18;;;;;;;2.42;2.05;;;;;;;-148.33;100.00;56587.81;5028389;28;20021;-62
2022/04/18 09:05:44;;;;;;;2.85;2.33;;;;;;;-148.33;100.00;56587.81;5027673;28;20033;-62
2022/04/18 09:08:10;;;;;;;3.03;2.15;;;;;;;-148.33;100.00;56587.81;5025997;28;20026;-61
2022/04/18 09:10:36;;;;;;;3.55;3.03;;;;;;;-148.33;100.00;56587.81;5027498;28;20095;-63
2022/04/18 09:13:06;;;;;;;3.13;2.60;;;;;;;-148.33;100.00;56587.81;5026956;28;20025;-62
2022/04/18 09:15:40;;;;;;;3.13;2.47;;;;;;;-148.33;100.00;56587.81;5027219;28;20025;-62
2022/04/18 09:18:17;;;;;;;5.70;2.80;;;;;;;-148.33;100.00;56587.81;5045314;28;20025;-61
2022/04/18 09:20:50;;;;;;;2.13;1.92;;;;;;;-148.33;100.00;56587.81;5027960;28;20128;-62
2022/04/18 09:23:29;;;;;;;2.67;1.98;;;;;;;-148.33;100.00;56587.81;5027530;28;20083;-60
2022/04/18 09:26:02;;;;;;;2.55;1.88;;;;;;;-148.33;100.00;56587.81;5027257;28;20033;-60
2022/04/18 09:28:33;;;;;;;2.00;1.70;;;;;;;-148.33;100.00;56587.81;5029477;28;20021;-60
2022/04/18 09:31:09;;;;;;;3.00;1.98;;;;;;;-148.33;100.00;56587.81;5030184;28;20029;-62
2022/04/18 09:33:37;;;;;;;2.10;1.90;;;;;;;-148.33;100.00;56587.81;5031477;28;20103;-61
2022/04/18 09:36:15;;;;;;;3.72;2.10;;;;;;;-148.33;100.00;56587.81;5031230;28;20516;-61
2022/04/18 09:38:46;;;;;;;5.60;2.22;;;;;;;-148.33;100.00;56587.81;5030736;28;20029;-61
2022/04/18 09:41:13;;;;;;;3.28;2.38;;;;;;;-148.33;100.00;56587.81;5031168;28;20057;-60
2022/04/18 09:43:47;;;;;;;3.38;2.30;;;;;;;-148.33;100.00;56587.81;5031430;28;20033;-61
2022/04/18 09:46:13;;;;;;;3.35;2.50;;;;;;;-148.33;100.00;56587.81;5031436;28;20030;-61
2022/04/18 09:48:40;;;;;;;4.50;2.35;;;;;;;-148.33;100.00;56587.81;5031496;28;20029;-61
2022/04/18 09:51:22;;;;;;;4.72;2.00;;;;;;;-148.33;100.00;56587.81;5030831;28;20033;-61
2022/04/18 09:53:47;;;;;;;3.85;2.50;;;;;;;-148.33;100.00;56587.81;5046931;28;20067;-60
2022/04/18 09:56:14;;;;;;;2.58;2.10;;;;;;;-148.33;100.00;56587.81;5051372;28;20048;-61
2022/04/18 09:58:40;;;;;;;4.55;2.60;;;;;;;-148.33;100.00;56587.81;5051221;28;20465;-62
2022/04/18 10:01:06;;;;;;;2.17;1.98;;;;;;;-148.33;100.00;56587.81;5050729;28;20115;-62
2022/04/18 10:03:34;;;;;;;2.53;2.15;;;;;;;-148.33;100.00;56587.81;5051375;28;20083;-62
2022/04/18 10:06:00;;;;;;;3.83;2.00;;;;;;;-148.33;100.00;56587.81;5050875;28;20461;-62
2022/04/18 10:08:26;;;;;;;2.40;2.20;;;;;;;-148.33;100.00;56587.81;5048058;28;20086;-61
2022/04/18 10:10:52;;;;;;;3.20;2.53;;;;;;;-148.33;100.00;56587.81;5050603;28;20025;-62
2022/04/18 10:13:20;;;;;;;5.90;2.45;;;;;;;-148.33;100.00;56587.81;5050298;28;20031;-61
2022/04/18 10:15:48;;;;;;;2.78;2.35;;;;;;;-148.33;100.00;56587.81;5050538;28;20108;-62
2022/04/18 10:18:15;;;;;;;2.30;2.10;;;;;;;-148.33;100.00;56587.81;5039723;28;20048;-63
2022/04/18 10:20:46;;;;;;;2.30;2.03;;;;;;;-148.33;100.00;56587.81;5031538;28;20037;-61
2022/04/18 10:23:30;;;;;;;;;;;;;;;-148.33;100.00;56587.81;5032245;28;20025;-62
2022/04/18 10:26:13;;;;;;;3.50;2.00;;;;;;;-148.33;100.00;56587.81;5031488;28;19909;-60
2022/04/18 10:28:42;;;;;;;2.28;2.08;;;;;;;-148.33;100.00;56587.81;5041275;28;20030;-62
2022/04/18 10:31:12;;;;;;;3.72;2.50;;;;;;;-148.33;100.00;56587.81;5035806;28;20029;-62
2022/04/18 10:33:38;;;;;;;2.38;2.17;;;;;;;-148.33;100.00;56587.81;5039808;28;20098;-62
2022/04/18 10:36:05;;;;;;;2.92;2.22;;;;;;;-148.33;100.00;56587.81;5050935;28;20021;-62
2022/04/18 10:38:33;;;;;;;2.97;2.40;;;;;;;-148.33;100.00;56587.81;5047452;28;20528;-63
2022/04/18 10:41:14;;;;;;;4.25;2.40;;;;;;;-148.33;100.00;56587.81;5029969;28;20036;-62
2022/04/18 10:44:03;;;;;;;2.78;2.05;;;;;;;-148.33;100.00;56587.81;5044660;28;20025;-62
2022/04/18 10:46:29;;;;;;;4.32;2.40;;;;;;;-148.33;100.00;56587.81;5040732;28;20051;-62
2022/04/18 10:49:23;;;;;;;2.17;2.03;;;;;;;-148.33;100.00;56587.81;5033235;28;20492;-61
2022/04/18 10:51:52;;;;;;;4.45;2.45;;;;;;;-148.33;100.00;56587.81;5030495;28;20416;-62
2022/04/18 10:54:25;;;;;;;2.53;2.28;;;;;;;-148.33;100.00;56587.81;5044965;28;20100;-63
2022/04/18 10:57:01;;;;;;;2.80;2.03;;;;;;;-148.33;100.00;56587.81;5050223;28;20061;-62
2022/04/18 10:59:27;;;;;;;3.25;2.15;;;;;;;-148.33;100.00;56587.81;5049824;28;20036;-62
2022/04/18 11:02:01;;;;;;;2.75;2.17;;;;;;;-148.33;100.00;56587.81;5051340;28;20032;-62
2022/04/18 11:04:35;;;;;;;2.75;2.17;;;;;;;-148.33;100.00;56587.81;5050519;28;20036;-63
2022/04/18 11:07:06;;;;;;;2.55;2.10;;;;;;;-148.33;100.00;56587.81;5051103;28;20036;-63
2022/04/18 11:09:35;;;;;;;3.53;2.55;;;;;;;-148.33;100.00;56587.81;5051625;28;20027;-62
2022/04/18 11:12:08;;;;;;;2.55;2.28;;;;;;;-148.33;100.00;56587.81;5051118;28;20044;-62
2022/04/18 11:14:54;;;;;;;2.38;2.17;;;;;;;-148.33;100.00;56587.81;5051225;28;20025;-62
2022/04/18 11:17:40;;;;;;;2.78;2.38;;;;;;;-148.33;100.00;56587.81;5050584;28;20025;-62
2022/04/18 11:20:24;;;;;;;2.70;2.50;;;;;;;-148.33;100.00;56587.81;5051001;28;20021;-62
2022/04/18 11:23:27;;;;;;;2.50;2.28;;;;;;;-148.33;100.00;56587.81;5050634;28;20437;-62
2022/04/18 11:25:56;;;;;;;2.85;2.13;;;;;;;-148.33;100.00;56587.81;5050325;28;20051;-61
2022/04/18 11:28:23;;;;;;;2.90;2.30;;;;;;;-148.33;100.00;56587.81;5050815;28;20099;-62